sensor_id;sensor_type;location;lat;lon;timestamp;noise_LAeq;noise_LA_min;noise_LA_max;noise_LA01;noise_LA95
66747;Laerm;53658;50.742;10.864;2022-09-28T00:01:19;38.37;32.35;43.86;;
66747;Laerm;53658;50.742;10.864;2022-09-28T00:03:47;38.31;32.35;45.04;;
66747;Laerm;53658;50.742;10.864;2022-09-28T00:06:17;48.82;32.35;84.71;;
66747;Laerm;53658;50.742;10.864;2022-09-28T00:08:44;38.27;32.35;41.30;;
66747;Laerm;53658;50.742;10.864;2022-09-28T00:11:12;38.29;32.35;41.41;;
66747;Laerm;53658;50.742;10.864;2022-09-28T00:13:40;38.28;32.35;41.38;;
66747;Laerm;53658;50.742;10.864;2022-09-28T00:16:18;38.28;32.00;41.61;;
66747;Laerm;53658;50.742;10.864;2022-09-28T00:18:45;38.36;32.93;41.30;;
66747;Laerm;53658;50.742;10.864;2022-09-28T00:21:17;38.33;32.93;41.22;;
66747;Laerm;53658;50.742;10.864;2022-09-28T00:23:44;38.33;32.93;48.73;;
66747;Laerm;53658;50.742;10.864;2022-09-28T00:26:31;38.25;32.93;41.30;;
66747;Laerm;53658;50.742;10.864;2022-09-28T00:28:59;38.27;32.35;41.14;;
66747;Laerm;53658;50.742;10.864;2022-09-28T00:31:28;38.26;33.44;41.14;;
66747;Laerm;53658;50.742;10.864;2022-09-28T00:33:56;38.22;30.89;41.30;;
66747;Laerm;53658;50.742;10.864;2022-09-28T00:36:29;38.18;30.89;41.30;;
66747;Laerm;53658;50.742;10.864;2022-09-28T00:38:57;38.21;32.93;41.30;;
66747;Laerm;53658;50.742;10.864;2022-09-28T00:41:24;38.16;33.44;41.22;;
66747;Laerm;53658;50.742;10.864;2022-09-28T00:43:51;38.27;31.68;41.14;;
66747;Laerm;53658;50.742;10.864;2022-09-28T00:46:26;38.28;31.68;43.93;;
66747;Laerm;53658;50.742;10.864;2022-09-28T00:49:01;38.22;32.93;41.30;;
66747;Laerm;53658;50.742;10.864;2022-09-28T00:51:29;38.19;32.35;40.98;;
66747;Laerm;53658;50.742;10.864;2022-09-28T00:54:00;38.19;32.35;41.06;;
66747;Laerm;53658;50.742;10.864;2022-09-28T00:56:30;38.13;32.35;41.14;;
66747;Laerm;53658;50.742;10.864;2022-09-28T00:58:58;47.75;32.93;83.33;;
66747;Laerm;53658;50.742;10.864;2022-09-28T01:01:26;38.22;32.93;41.30;;
66747;Laerm;53658;50.742;10.864;2022-09-28T01:03:52;38.21;33.44;40.98;;
66747;Laerm;53658;50.742;10.864;2022-09-28T01:06:21;38.34;32.35;41.30;;
66747;Laerm;53658;50.742;10.864;2022-09-28T01:08:51;38.29;32.35;41.22;;
66747;Laerm;53658;50.742;10.864;2022-09-28T01:11:19;38.18;29.92;41.14;;
66747;Laerm;53658;50.742;10.864;2022-09-28T01:13:48;38.20;32.93;41.19;;
66747;Laerm;53658;50.742;10.864;2022-09-28T01:28:03;38.32;33.44;41.61;;
66747;Laerm;53658;50.742;10.864;2022-09-28T01:30:50;38.45;32.93;41.19;;
66747;Laerm;53658;50.742;10.864;2022-09-28T01:33:27;38.44;32.93;41.22;;
66747;Laerm;53658;50.742;10.864;2022-09-28T01:36:03;38.56;32.93;41.30;;
66747;Laerm;53658;50.742;10.864;2022-09-28T01:39:00;38.46;31.68;41.75;;
66747;Laerm;53658;50.742;10.864;2022-09-28T01:41:28;38.38;31.68;41.30;;
66747;Laerm;53658;50.742;10.864;2022-09-28T01:43:59;38.47;32.93;41.38;;
66747;Laerm;53658;50.742;10.864;2022-09-28T01:46:43;38.44;32.35;42.03;;
66747;Laerm;53658;50.742;10.864;2022-09-28T01:54:40;38.47;32.35;41.53;;
66747;Laerm;53658;50.742;10.864;2022-09-28T02:05:16;38.45;29.92;41.14;;
66747;Laerm;53658;50.742;10.864;2022-09-28T02:08:07;38.55;33.44;41.53;;
66747;Laerm;53658;50.742;10.864;2022-09-28T02:10:46;38.45;32.35;41.61;;
66747;Laerm;53658;50.742;10.864;2022-09-28T02:13:46;38.48;32.93;41.61;;
66747;Laerm;53658;50.742;10.864;2022-09-28T02:18:50;38.53;33.90;41.22;;
66747;Laerm;53658;50.742;10.864;2022-09-28T02:21:17;38.45;32.93;41.22;;
66747;Laerm;53658;50.742;10.864;2022-09-28T02:23:57;38.51;33.44;41.82;;
66747;Laerm;53658;50.742;10.864;2022-09-28T02:26:30;38.50;33.44;41.22;;
66747;Laerm;53658;50.742;10.864;2022-09-28T02:28:58;38.54;33.44;41.61;;
66747;Laerm;53658;50.742;10.864;2022-09-28T02:31:25;38.61;33.90;41.61;;
66747;Laerm;53658;50.742;10.864;2022-09-28T02:33:54;38.57;33.90;41.38;;
66747;Laerm;53658;50.742;10.864;2022-09-28T02:36:22;38.41;32.93;41.46;;
66747;Laerm;53658;50.742;10.864;2022-09-28T02:38:49;38.59;32.35;41.30;;
66747;Laerm;53658;50.742;10.864;2022-09-28T02:52:44;38.74;33.44;41.61;;
66747;Laerm;53658;50.742;10.864;2022-09-28T02:55:39;38.69;33.09;41.38;;
66747;Laerm;53658;50.742;10.864;2022-09-28T03:01:37;38.84;33.55;41.46;;
66747;Laerm;53658;50.742;10.864;2022-09-28T03:06:54;38.68;31.68;41.46;;
66747;Laerm;53658;50.742;10.864;2022-09-28T03:09:35;38.69;34.31;41.68;;
66747;Laerm;53658;50.742;10.864;2022-09-28T03:12:12;38.69;32.93;41.89;;
66747;Laerm;53658;50.742;10.864;2022-09-28T03:14:40;38.67;32.93;41.61;;
66747;Laerm;53658;50.742;10.864;2022-09-28T03:17:06;38.66;33.44;41.33;;
66747;Laerm;53658;50.742;10.864;2022-09-28T03:19:33;38.72;33.09;41.38;;
66747;Laerm;53658;50.742;10.864;2022-09-28T03:22:00;38.68;33.90;41.46;;
66747;Laerm;53658;50.742;10.864;2022-09-28T03:24:26;38.69;30.89;41.82;;
66747;Laerm;53658;50.742;10.864;2022-09-28T03:26:52;38.63;31.68;41.53;;
66747;Laerm;53658;50.742;10.864;2022-09-28T03:29:17;38.69;32.35;42.24;;
66747;Laerm;53658;50.742;10.864;2022-09-28T03:31:52;38.73;32.93;41.38;;
66747;Laerm;53658;50.742;10.864;2022-09-28T03:34:18;38.77;33.90;41.68;;
66747;Laerm;53658;50.742;10.864;2022-09-28T03:36:43;38.80;33.44;41.82;;
66747;Laerm;53658;50.742;10.864;2022-09-28T03:39:09;38.76;33.44;41.61;;
66747;Laerm;53658;50.742;10.864;2022-09-28T03:41:36;38.62;32.58;41.53;;
66747;Laerm;53658;50.742;10.864;2022-09-28T03:44:03;38.72;33.90;41.30;;
66747;Laerm;53658;50.742;10.864;2022-09-28T03:46:30;38.58;32.93;41.53;;
66747;Laerm;53658;50.742;10.864;2022-09-28T03:49:01;38.45;32.93;41.22;;
66747;Laerm;53658;50.742;10.864;2022-09-28T03:51:27;38.44;30.89;41.53;;
66747;Laerm;53658;50.742;10.864;2022-09-28T03:53:54;38.49;32.35;41.30;;
66747;Laerm;53658;50.742;10.864;2022-09-28T03:56:20;38.52;33.90;41.22;;
66747;Laerm;53658;50.742;10.864;2022-09-28T03:58:45;38.38;32.35;41.22;;
66747;Laerm;53658;50.742;10.864;2022-09-28T04:01:13;38.49;32.35;41.61;;
66747;Laerm;53658;50.742;10.864;2022-09-28T04:03:41;38.48;32.35;41.06;;
66747;Laerm;53658;50.742;10.864;2022-09-28T04:06:07;38.46;32.93;41.14;;
66747;Laerm;53658;50.742;10.864;2022-09-28T04:08:34;38.41;32.35;41.38;;
66747;Laerm;53658;50.742;10.864;2022-09-28T04:11:01;38.45;30.89;41.22;;
66747;Laerm;53658;50.742;10.864;2022-09-28T04:13:29;38.63;33.90;41.68;;
66747;Laerm;53658;50.742;10.864;2022-09-28T04:15:59;38.60;32.35;41.53;;
66747;Laerm;53658;50.742;10.864;2022-09-28T04:18:28;38.51;32.93;41.46;;
66747;Laerm;53658;50.742;10.864;2022-09-28T04:21:12;38.51;33.44;41.14;;
66747;Laerm;53658;50.742;10.864;2022-09-28T04:23:43;38.48;32.93;41.14;;
66747;Laerm;53658;50.742;10.864;2022-09-28T04:26:22;38.46;32.93;41.46;;
66747;Laerm;53658;50.742;10.864;2022-09-28T04:28:50;38.40;32.93;41.06;;
66747;Laerm;53658;50.742;10.864;2022-09-28T04:31:48;38.44;32.35;41.53;;
66747;Laerm;53658;50.742;10.864;2022-09-28T04:34:19;38.42;32.93;41.22;;
66747;Laerm;53658;50.742;10.864;2022-09-28T04:36:46;38.43;32.35;41.06;;
66747;Laerm;53658;50.742;10.864;2022-09-28T04:39:15;38.48;33.44;41.61;;
66747;Laerm;53658;50.742;10.864;2022-09-28T04:41:47;38.51;30.89;41.30;;
66747;Laerm;53658;50.742;10.864;2022-09-28T04:44:14;38.47;32.93;41.22;;
66747;Laerm;53658;50.742;10.864;2022-09-28T04:46:41;38.36;33.44;41.82;;
66747;Laerm;53658;50.742;10.864;2022-09-28T04:49:26;38.36;32.93;41.14;;
66747;Laerm;53658;50.742;10.864;2022-09-28T04:51:54;38.29;32.93;41.38;;
66747;Laerm;53658;50.742;10.864;2022-09-28T04:54:20;38.42;32.35;41.53;;
66747;Laerm;53658;50.742;10.864;2022-09-28T04:56:46;38.37;31.68;41.38;;
66747;Laerm;53658;50.742;10.864;2022-09-28T04:59:15;38.38;33.44;41.22;;
66747;Laerm;53658;50.742;10.864;2022-09-28T05:01:43;38.46;32.93;41.30;;
66747;Laerm;53658;50.742;10.864;2022-09-28T05:04:28;38.52;33.90;41.53;;
66747;Laerm;53658;50.742;10.864;2022-09-28T05:07:10;38.51;33.44;41.38;;
66747;Laerm;53658;50.742;10.864;2022-09-28T05:09:36;38.49;33.55;41.61;;
66747;Laerm;53658;50.742;10.864;2022-09-28T05:12:02;38.45;32.35;41.22;;
66747;Laerm;53658;50.742;10.864;2022-09-28T05:14:28;44.26;32.35;79.13;;
66747;Laerm;53658;50.742;10.864;2022-09-28T05:16:54;42.13;32.93;75.75;;
66747;Laerm;53658;50.742;10.864;2022-09-28T05:19:20;38.66;33.90;46.80;;
66747;Laerm;53658;50.742;10.864;2022-09-28T05:21:47;39.48;32.35;68.35;;
66747;Laerm;53658;50.742;10.864;2022-09-28T05:24:13;38.52;33.90;45.99;;
66747;Laerm;53658;50.742;10.864;2022-09-28T05:26:42;38.51;32.35;52.68;;
66747;Laerm;53658;50.742;10.864;2022-09-28T05:29:09;38.73;33.44;59.75;;
66747;Laerm;53658;50.742;10.864;2022-09-28T05:31:38;38.87;32.93;62.48;;
66747;Laerm;53658;50.742;10.864;2022-09-28T05:34:10;38.63;33.90;53.97;;
66747;Laerm;53658;50.742;10.864;2022-09-28T05:36:36;41.61;32.93;74.84;;
66747;Laerm;53658;50.742;10.864;2022-09-28T05:39:03;38.48;32.93;41.46;;
66747;Laerm;53658;50.742;10.864;2022-09-28T05:41:30;38.52;33.44;53.08;;
66747;Laerm;53658;50.742;10.864;2022-09-28T05:43:56;38.95;32.35;65.08;;
66747;Laerm;53658;50.742;10.864;2022-09-28T05:46:22;38.53;33.44;43.09;;
66747;Laerm;53658;50.742;10.864;2022-09-28T05:48:49;38.49;32.93;41.46;;
66747;Laerm;53658;50.742;10.864;2022-09-28T05:51:17;38.55;32.93;47.46;;
66747;Laerm;53658;50.742;10.864;2022-09-28T05:53:44;38.60;29.92;41.30;;
66747;Laerm;53658;50.742;10.864;2022-09-28T05:56:10;38.67;31.68;51.56;;
66747;Laerm;53658;50.742;10.864;2022-09-28T05:58:39;38.65;32.93;41.38;;
66747;Laerm;53658;50.742;10.864;2022-09-28T06:01:06;38.71;33.90;50.06;;
66747;Laerm;53658;50.742;10.864;2022-09-28T06:03:32;38.71;31.68;47.50;;
66747;Laerm;53658;50.742;10.864;2022-09-28T06:06:01;38.59;33.44;41.30;;
66747;Laerm;53658;50.742;10.864;2022-09-28T06:08:30;63.83;33.09;100.09;;
66747;Laerm;53658;50.742;10.864;2022-09-28T06:11:12;39.62;33.90;67.45;;
66747;Laerm;53658;50.742;10.864;2022-09-28T06:13:38;38.69;33.55;42.29;;
66747;Laerm;53658;50.742;10.864;2022-09-28T06:16:07;38.37;31.68;42.74;;
66747;Laerm;53658;50.742;10.864;2022-09-28T06:18:33;38.29;32.93;41.53;;
66747;Laerm;53658;50.742;10.864;2022-09-28T06:21:18;38.15;32.93;41.14;;
66747;Laerm;53658;50.742;10.864;2022-09-28T06:23:45;38.28;33.44;41.06;;
66747;Laerm;53658;50.742;10.864;2022-09-28T06:26:10;38.16;32.93;41.06;;
66747;Laerm;53658;50.742;10.864;2022-09-28T06:28:37;38.15;31.68;41.38;;
66747;Laerm;53658;50.742;10.864;2022-09-28T06:31:04;38.15;32.93;41.22;;
66747;Laerm;53658;50.742;10.864;2022-09-28T06:33:34;38.13;31.68;41.14;;
66747;Laerm;53658;50.742;10.864;2022-09-28T06:36:00;38.14;30.89;40.89;;
66747;Laerm;53658;50.742;10.864;2022-09-28T06:38:26;38.21;32.35;41.14;;
66747;Laerm;53658;50.742;10.864;2022-09-28T06:40:53;38.18;32.93;41.06;;
66747;Laerm;53658;50.742;10.864;2022-09-28T06:43:18;38.19;33.44;43.85;;
66747;Laerm;53658;50.742;10.864;2022-09-28T06:46:06;38.16;32.93;41.14;;
66747;Laerm;53658;50.742;10.864;2022-09-28T06:48:35;38.16;32.93;41.06;;
66747;Laerm;53658;50.742;10.864;2022-09-28T06:51:03;38.08;32.35;41.06;;
66747;Laerm;53658;50.742;10.864;2022-09-28T06:53:39;38.15;32.35;50.39;;
66747;Laerm;53658;50.742;10.864;2022-09-28T06:56:14;38.12;31.68;46.91;;
66747;Laerm;53658;50.742;10.864;2022-09-28T06:58:40;38.03;32.93;41.14;;
66747;Laerm;53658;50.742;10.864;2022-09-28T07:01:06;38.06;32.35;40.98;;
66747;Laerm;53658;50.742;10.864;2022-09-28T07:03:41;38.06;31.68;43.09;;
66747;Laerm;53658;50.742;10.864;2022-09-28T07:06:46;38.01;30.89;45.48;;
66747;Laerm;53658;50.742;10.864;2022-09-28T07:09:30;37.96;31.68;41.22;;
66747;Laerm;53658;50.742;10.864;2022-09-28T07:12:20;38.02;32.35;41.75;;
66747;Laerm;53658;50.742;10.864;2022-09-28T07:14:52;38.04;31.68;41.06;;
66747;Laerm;53658;50.742;10.864;2022-09-28T07:17:22;37.93;32.35;40.98;;
66747;Laerm;53658;50.742;10.864;2022-09-28T07:19:49;37.92;32.00;40.89;;
66747;Laerm;53658;50.742;10.864;2022-09-28T07:22:20;37.89;31.68;40.71;;
66747;Laerm;53658;50.742;10.864;2022-09-28T07:24:46;37.91;32.93;40.98;;
66747;Laerm;53658;50.742;10.864;2022-09-28T07:27:35;37.98;31.68;42.93;;
66747;Laerm;53658;50.742;10.864;2022-09-28T07:30:30;38.02;32.35;41.06;;
66747;Laerm;53658;50.742;10.864;2022-09-28T07:33:14;38.03;32.35;40.89;;
66747;Laerm;53658;50.742;10.864;2022-09-28T07:35:53;37.99;32.93;41.38;;
66747;Laerm;53658;50.742;10.864;2022-09-28T07:38:22;38.03;32.35;40.89;;
66747;Laerm;53658;50.742;10.864;2022-09-28T07:40:48;37.97;32.35;40.80;;
66747;Laerm;53658;50.742;10.864;2022-09-28T07:43:34;37.96;32.93;40.98;;
66747;Laerm;53658;50.742;10.864;2022-09-28T07:46:00;37.99;32.35;43.99;;
66747;Laerm;53658;50.742;10.864;2022-09-28T07:48:26;37.92;31.68;41.53;;
66747;Laerm;53658;50.742;10.864;2022-09-28T07:51:27;37.95;32.35;40.71;;
66747;Laerm;53658;50.742;10.864;2022-09-28T07:54:17;37.98;32.35;54.95;;
66747;Laerm;53658;50.742;10.864;2022-09-28T07:57:01;46.85;32.93;82.94;;
66747;Laerm;53658;50.742;10.864;2022-09-28T07:59:35;41.87;32.35;76.01;;
66747;Laerm;53658;50.742;10.864;2022-09-28T08:02:20;38.08;29.92;41.14;;
66747;Laerm;53658;50.742;10.864;2022-09-28T08:04:48;38.45;33.44;58.92;;
66747;Laerm;53658;50.742;10.864;2022-09-28T08:07:15;38.10;31.68;46.18;;
66747;Laerm;53658;50.742;10.864;2022-09-28T08:09:43;37.95;31.68;40.98;;
66747;Laerm;53658;50.742;10.864;2022-09-28T08:12:25;37.93;32.35;40.80;;
66747;Laerm;53658;50.742;10.864;2022-09-28T08:15:11;38.02;32.93;41.14;;
66747;Laerm;53658;50.742;10.864;2022-09-28T08:17:51;37.99;32.35;41.38;;
66747;Laerm;53658;50.742;10.864;2022-09-28T08:20:19;38.03;32.35;41.96;;
66747;Laerm;53658;50.742;10.864;2022-09-28T08:23:05;38.09;31.68;49.89;;
66747;Laerm;53658;50.742;10.864;2022-09-28T08:25:33;37.92;30.89;40.89;;
66747;Laerm;53658;50.742;10.864;2022-09-28T08:28:03;37.94;31.68;40.98;;
66747;Laerm;53658;50.742;10.864;2022-09-28T08:30:32;37.94;31.68;41.06;;
66747;Laerm;53658;50.742;10.864;2022-09-28T08:33:12;38.00;31.68;48.20;;
66747;Laerm;53658;50.742;10.864;2022-09-28T08:35:43;38.04;32.00;41.14;;
66747;Laerm;53658;50.742;10.864;2022-09-28T08:38:41;38.10;31.68;44.80;;
66747;Laerm;53658;50.742;10.864;2022-09-28T08:44:20;38.29;32.35;41.30;;
66747;Laerm;53658;50.742;10.864;2022-09-28T08:47:27;38.27;31.68;41.14;;
66747;Laerm;53658;50.742;10.864;2022-09-28T08:50:27;38.21;31.68;41.14;;
66747;Laerm;53658;50.742;10.864;2022-09-28T08:56:04;38.12;32.35;41.22;;
66747;Laerm;53658;50.742;10.864;2022-09-28T08:58:37;38.11;32.93;41.53;;
66747;Laerm;53658;50.742;10.864;2022-09-28T09:01:07;38.17;32.93;41.06;;
66747;Laerm;53658;50.742;10.864;2022-09-28T09:03:43;38.20;32.93;44.11;;
66747;Laerm;53658;50.742;10.864;2022-09-28T09:15:10;38.96;33.44;41.61;;
66747;Laerm;53658;50.742;10.864;2022-09-28T09:21:00;38.76;33.90;56.15;;
66747;Laerm;53658;50.742;10.864;2022-09-28T09:23:54;38.65;33.90;41.53;;
66747;Laerm;53658;50.742;10.864;2022-09-28T09:26:36;38.57;32.93;42.59;;
66747;Laerm;53658;50.742;10.864;2022-09-28T09:34:35;38.13;32.35;41.46;;
66747;Laerm;53658;50.742;10.864;2022-09-28T09:37:29;38.12;32.35;41.06;;
66747;Laerm;53658;50.742;10.864;2022-09-28T09:40:42;38.21;32.35;40.98;;
66747;Laerm;53658;50.742;10.864;2022-09-28T09:47:18;38.23;32.93;41.06;;
66747;Laerm;53658;50.742;10.864;2022-09-28T09:58:42;38.34;32.35;40.98;;
66747;Laerm;53658;50.742;10.864;2022-09-28T10:01:19;38.30;33.44;41.14;;
66747;Laerm;53658;50.742;10.864;2022-09-28T10:04:36;38.22;31.68;40.89;;
66747;Laerm;53658;50.742;10.864;2022-09-28T10:07:21;38.15;31.33;40.89;;
66747;Laerm;53658;50.742;10.864;2022-09-28T10:09:52;38.14;32.35;40.80;;
66747;Laerm;53658;50.742;10.864;2022-09-28T10:12:48;38.10;32.35;40.89;;
66747;Laerm;53658;50.742;10.864;2022-09-28T10:15:25;38.15;32.93;40.80;;
66747;Laerm;53658;50.742;10.864;2022-09-28T10:18:11;38.16;32.93;41.06;;
66747;Laerm;53658;50.742;10.864;2022-09-28T10:20:57;38.30;33.44;41.11;;
66747;Laerm;53658;50.742;10.864;2022-09-28T10:23:42;38.06;32.93;41.14;;
66747;Laerm;53658;50.742;10.864;2022-09-28T10:26:15;38.36;32.93;59.71;;
66747;Laerm;53658;50.742;10.864;2022-09-28T10:29:01;38.12;33.44;43.49;;
66747;Laerm;53658;50.742;10.864;2022-09-28T10:31:51;38.88;35.66;43.58;;
66747;Laerm;53658;50.742;10.864;2022-09-28T10:34:28;40.77;36.91;70.42;;
66747;Laerm;53658;50.742;10.864;2022-09-28T10:37:09;40.35;38.05;45.11;;
66747;Laerm;53658;50.742;10.864;2022-09-28T10:39:54;40.52;38.05;45.01;;
66747;Laerm;53658;50.742;10.864;2022-09-28T10:42:26;40.24;37.88;43.44;;
66747;Laerm;53658;50.742;10.864;2022-09-28T10:45:19;39.84;37.52;41.53;;
66747;Laerm;53658;50.742;10.864;2022-09-28T10:47:46;39.81;37.32;41.68;;
66747;Laerm;53658;50.742;10.864;2022-09-28T10:50:24;39.74;37.32;41.46;;
66747;Laerm;53658;50.742;10.864;2022-09-28T10:53:18;39.74;37.32;41.46;;
66747;Laerm;53658;50.742;10.864;2022-09-28T10:56:20;39.70;37.32;41.68;;
66747;Laerm;53658;50.742;10.864;2022-09-28T10:58:52;39.80;37.52;43.09;;
66747;Laerm;53658;50.742;10.864;2022-09-28T11:01:36;39.69;37.32;41.22;;
66747;Laerm;53658;50.742;10.864;2022-09-28T11:04:05;39.71;37.32;41.61;;
66747;Laerm;53658;50.742;10.864;2022-09-28T11:06:37;39.70;37.52;41.61;;
66747;Laerm;53658;50.742;10.864;2022-09-28T11:09:25;39.71;37.12;41.68;;
66747;Laerm;53658;50.742;10.864;2022-09-28T11:11:52;39.73;37.32;41.53;;
66747;Laerm;53658;50.742;10.864;2022-09-28T11:14:33;39.71;37.32;41.46;;
66747;Laerm;53658;50.742;10.864;2022-09-28T11:17:28;39.74;36.91;42.03;;
66747;Laerm;53658;50.742;10.864;2022-09-28T11:22:55;39.70;37.32;42.09;;
66747;Laerm;53658;50.742;10.864;2022-09-28T11:25:27;39.68;37.32;41.75;;
66747;Laerm;53658;50.742;10.864;2022-09-28T11:27:56;39.65;37.12;41.53;;
66747;Laerm;53658;50.742;10.864;2022-09-28T11:30:45;39.67;37.52;41.68;;
66747;Laerm;53658;50.742;10.864;2022-09-28T11:33:38;39.66;37.32;41.53;;
66747;Laerm;53658;50.742;10.864;2022-09-28T11:37:01;39.69;37.12;41.68;;
66747;Laerm;53658;50.742;10.864;2022-09-28T11:40:00;39.69;37.12;41.53;;
66747;Laerm;53658;50.742;10.864;2022-09-28T11:45:40;39.68;37.52;41.68;;
66747;Laerm;53658;50.742;10.864;2022-09-28T11:48:21;39.67;37.12;44.03;;
66747;Laerm;53658;50.742;10.864;2022-09-28T11:51:02;39.67;37.12;41.46;;
66747;Laerm;53658;50.742;10.864;2022-09-28T11:53:49;39.66;37.32;42.16;;
66747;Laerm;53658;50.742;10.864;2022-09-28T11:56:37;39.66;36.91;48.31;;
66747;Laerm;53658;50.742;10.864;2022-09-28T11:59:14;39.68;37.32;41.82;;
66747;Laerm;53658;50.742;10.864;2022-09-28T12:02:08;39.69;37.12;41.46;;
66747;Laerm;53658;50.742;10.864;2022-09-28T12:04:55;39.69;37.52;52.57;;
66747;Laerm;53658;50.742;10.864;2022-09-28T12:07:32;39.64;37.32;41.33;;
66747;Laerm;53658;50.742;10.864;2022-09-28T12:10:13;39.68;36.91;41.82;;
66747;Laerm;53658;50.742;10.864;2022-09-28T12:12:49;39.85;37.32;41.89;;
66747;Laerm;53658;50.742;10.864;2022-09-28T12:15:51;39.83;37.52;44.03;;
66747;Laerm;53658;50.742;10.864;2022-09-28T12:21:46;39.76;37.32;41.53;;
66747;Laerm;53658;50.742;10.864;2022-09-28T12:24:54;39.73;37.52;41.53;;
66747;Laerm;53658;50.742;10.864;2022-09-28T12:27:40;39.79;37.32;41.53;;
66747;Laerm;53658;50.742;10.864;2022-09-28T12:38:26;42.06;37.70;73.87;;
66747;Laerm;53658;50.742;10.864;2022-09-28T12:41:22;40.05;37.70;56.08;;
66747;Laerm;53658;50.742;10.864;2022-09-28T13:01:30;39.57;35.94;47.44;;
66747;Laerm;53658;50.742;10.864;2022-09-28T13:04:18;39.70;37.12;48.87;;
66747;Laerm;53658;50.742;10.864;2022-09-28T13:06:57;39.94;37.70;48.08;;
66747;Laerm;53658;50.742;10.864;2022-09-28T13:09:33;40.02;38.02;51.59;;
66747;Laerm;53658;50.742;10.864;2022-09-28T13:15:16;40.21;37.88;47.72;;
66747;Laerm;53658;50.742;10.864;2022-09-28T13:18:07;40.17;38.18;42.29;;
66747;Laerm;53658;50.742;10.864;2022-09-28T13:21:30;40.16;37.52;43.39;;
66747;Laerm;53658;50.742;10.864;2022-09-28T13:23:49;40.12;37.32;42.03;;
66747;Laerm;53658;50.742;10.864;2022-09-28T13:26:28;40.09;37.70;42.09;;
66747;Laerm;53658;50.742;10.864;2022-09-28T13:29:08;40.01;37.52;41.75;;
66747;Laerm;53658;50.742;10.864;2022-09-28T13:31:43;39.88;37.52;41.68;;
66747;Laerm;53658;50.742;10.864;2022-09-28T13:34:19;39.94;37.70;41.82;;
66747;Laerm;53658;50.742;10.864;2022-09-28T13:58:43;40.24;37.88;42.29;;
66747;Laerm;53658;50.742;10.864;2022-09-28T14:01:43;40.17;37.88;50.64;;
66747;Laerm;53658;50.742;10.864;2022-09-28T14:04:20;40.38;38.21;47.32;;
66747;Laerm;53658;50.742;10.864;2022-09-28T14:07:09;40.12;38.05;43.04;;
66747;Laerm;53658;50.742;10.864;2022-09-28T14:09:45;40.39;37.52;56.22;;
66747;Laerm;53658;50.742;10.864;2022-09-28T14:12:50;39.83;37.32;41.75;;
66747;Laerm;53658;50.742;10.864;2022-09-28T14:18:16;39.90;37.32;43.86;;
66747;Laerm;53658;50.742;10.864;2022-09-28T14:21:24;39.79;37.88;41.53;;
66747;Laerm;53658;50.742;10.864;2022-09-28T14:26:45;39.75;37.32;42.71;;
66747;Laerm;53658;50.742;10.864;2022-09-28T14:29:27;39.65;37.12;41.46;;
66747;Laerm;53658;50.742;10.864;2022-09-28T14:31:55;39.66;37.32;43.24;;
66747;Laerm;53658;50.742;10.864;2022-09-28T14:34:44;39.67;36.69;41.53;;
66747;Laerm;53658;50.742;10.864;2022-09-28T14:37:31;39.68;37.12;41.38;;
66747;Laerm;53658;50.742;10.864;2022-09-28T14:40:30;39.68;37.52;41.96;;
66747;Laerm;53658;50.742;10.864;2022-09-28T14:48:46;39.78;37.12;47.12;;
66747;Laerm;53658;50.742;10.864;2022-09-28T14:53:52;39.73;37.52;41.53;;
66747;Laerm;53658;50.742;10.864;2022-09-28T14:56:20;39.69;37.32;41.30;;
66747;Laerm;53658;50.742;10.864;2022-09-28T14:58:53;39.66;36.91;45.77;;
66747;Laerm;53658;50.742;10.864;2022-09-28T15:01:22;39.70;37.32;43.04;;
66747;Laerm;53658;50.742;10.864;2022-09-28T15:03:55;39.69;37.32;43.39;;
66747;Laerm;53658;50.742;10.864;2022-09-28T15:06:24;39.70;36.91;43.34;;
66747;Laerm;53658;50.742;10.864;2022-09-28T15:08:53;39.88;37.12;44.19;;
66747;Laerm;53658;50.742;10.864;2022-09-28T15:11:22;39.63;37.12;42.09;;
66747;Laerm;53658;50.742;10.864;2022-09-28T15:13:50;39.65;36.69;41.75;;
66747;Laerm;53658;50.742;10.864;2022-09-28T15:16:29;39.66;36.91;42.03;;
66747;Laerm;53658;50.742;10.864;2022-09-28T15:19:11;39.66;36.69;42.71;;
66747;Laerm;53658;50.742;10.864;2022-09-28T15:21:43;39.65;37.52;41.61;;
66747;Laerm;53658;50.742;10.864;2022-09-28T15:24:28;39.64;37.52;47.72;;
66747;Laerm;53658;50.742;10.864;2022-09-28T15:26:56;39.65;36.91;41.82;;
66747;Laerm;53658;50.742;10.864;2022-09-28T15:29:23;39.63;37.32;41.46;;
66747;Laerm;53658;50.742;10.864;2022-09-28T15:31:52;39.64;37.12;41.82;;
66747;Laerm;53658;50.742;10.864;2022-09-28T15:34:34;39.62;36.98;42.29;;
66747;Laerm;53658;50.742;10.864;2022-09-28T15:37:23;39.60;37.32;42.03;;
66747;Laerm;53658;50.742;10.864;2022-09-28T15:39:53;39.60;36.45;41.46;;
66747;Laerm;53658;50.742;10.864;2022-09-28T15:42:20;39.59;37.32;41.53;;
66747;Laerm;53658;50.742;10.864;2022-09-28T15:45:18;39.61;37.12;41.53;;
66747;Laerm;53658;50.742;10.864;2022-09-28T15:47:50;39.60;37.32;41.38;;
66747;Laerm;53658;50.742;10.864;2022-09-28T15:50:25;39.61;37.12;41.38;;
66747;Laerm;53658;50.742;10.864;2022-09-28T15:53:02;39.64;36.91;41.46;;
66747;Laerm;53658;50.742;10.864;2022-09-28T15:55:41;39.72;37.52;43.00;;
66747;Laerm;53658;50.742;10.864;2022-09-28T16:00:39;39.66;37.32;43.04;;
66747;Laerm;53658;50.742;10.864;2022-09-28T16:05:40;39.60;36.91;43.49;;
66747;Laerm;53658;50.742;10.864;2022-09-28T16:11:25;39.66;37.32;41.46;;
66747;Laerm;53658;50.742;10.864;2022-09-28T16:14:04;39.71;36.91;41.38;;
66747;Laerm;53658;50.742;10.864;2022-09-28T16:16:43;39.89;36.20;41.96;;
66747;Laerm;53658;50.742;10.864;2022-09-28T16:19:31;40.15;37.70;44.27;;
66747;Laerm;53658;50.742;10.864;2022-09-28T16:22:10;40.42;37.12;47.79;;
66747;Laerm;53658;50.742;10.864;2022-09-28T16:24:38;40.51;38.21;43.39;;
66747;Laerm;53658;50.742;10.864;2022-09-28T16:27:08;40.47;38.21;45.51;;
66747;Laerm;53658;50.742;10.864;2022-09-28T16:32:35;40.52;37.70;59.93;;
66747;Laerm;53658;50.742;10.864;2022-09-28T16:37:36;40.28;38.05;47.48;;
66747;Laerm;53658;50.742;10.864;2022-09-28T16:40:03;40.24;38.05;43.24;;
66747;Laerm;53658;50.742;10.864;2022-09-28T16:42:29;40.19;38.05;46.87;;
66747;Laerm;53658;50.742;10.864;2022-09-28T16:44:55;40.19;38.05;47.95;;
66747;Laerm;53658;50.742;10.864;2022-09-28T16:47:22;40.44;37.88;65.36;;
66747;Laerm;53658;50.742;10.864;2022-09-28T16:49:48;39.99;37.88;45.48;;
66747;Laerm;53658;50.742;10.864;2022-09-28T16:52:14;40.03;37.12;52.59;;
66747;Laerm;53658;50.742;10.864;2022-09-28T16:55:03;39.97;37.32;43.99;;
66747;Laerm;53658;50.742;10.864;2022-09-28T16:57:42;39.92;37.32;52.04;;
66747;Laerm;53658;50.742;10.864;2022-09-28T17:00:18;39.77;37.52;47.30;;
66747;Laerm;53658;50.742;10.864;2022-09-28T17:02:49;39.71;37.12;45.83;;
66747;Laerm;53658;50.742;10.864;2022-09-28T17:05:19;41.93;36.69;74.39;;
66747;Laerm;53658;50.742;10.864;2022-09-28T17:07:58;39.64;37.12;55.09;;